Terminal Aerodrome Forecast
Issued by NWS

Home | Current Version | Previous Version | Text Only | Print | Product List | Glossary On
Versions: 1 2 3 4 5 6 7 8 9 10 11 12 13 14 15 16 17 18 19 20 21 22 23 24 25 26 27 28 29 30 31 32 33 34 35 36 37
558
FTUS43 KGLD 290253 AAA
TAFMCK
TAF AMD
KMCK 290253Z 2903/2924 VRB05KT P6SM BKN090
     FM290800 03006KT 3SM BR BKN025
     FM291400 07006KT P6SM SCT025
     FM291700 11007KT P6SM SCT035=

USA.gov is the U.S. government's official web portal to all federal, state and local government web resources and services.